Αρχική σελίδα
METAR-TAF:

METAR-TAF

Αεροδρόμια :

Μορονί, Κομόρες

γεωγραφικό πλάτος: 11-32S, γεωγραφικό μήκος: 043-16E, υψόμετρο: 29 μ

Παρών καιρός

Η αναφορά έγινε 2 ώρες και 40 λεπτά πριν, στις 19:00 UTC
Άνεμος 2 kt από μεταβλητές κατευθύνσεις
Θερμοκρασία 24°C
Υγρασία 69%
Πίεση 1017 hPa
Ορατότητα 10 χλμ και άνω
Λίγα νέφη σε ύψος 2000 πόδια

METAR: FMCH 231900Z VRB02KT 9999 FEW020 24/18 Q1017 NOSIG

Χρόνος: 00:40 (21:40 UTC)

Πρόγνωση Καιρού

Η αναφορά έγινε 4 ώρες και 40 λεπτά πριν, στις 17:00 UTC
Η πρόγνωση ισχύει από τις 23 στις 18 UTC έως τις 24 στις 24 UTC
Άνεμος 5 kt από Α/NA
Ορατότητα 10 χλμ και άνω
Λίγα νέφη σε ύψος 2000 πόδια
Καθιστάμενος
από 24 στις 04 UTC έως τις 24 στις 06 UTC
Άνεμος 17 kt από Ν/ΝΔ
Καθιστάμενος
από 24 στις 16 UTC έως τις 24 στις 18 UTC
Άνεμος 3 kt από Α

TAF: FMCH 231700Z 2318/2424 11005KT 9999 FEW020 BECMG 2404/2406 20017KT BECMG 2416/2418 09003KT

Μετεωρολογικές αναφορές και προγνώσεις για περισσότερα από 4000 αεροδρόμια (δελτία METAR και TAF).

Οι διαθέσιμοι σταθμοί απεικονίζονται στο χάρτη με κίτρινες και κόκκινες κουκκίδες.

Μετακινήστε το ποντίκι πάνω από τις κουκκίδες για να δείτε το όνομα του σταθμού.

Στη συνέχεια, κάντε κλικ για να δείτε τις μετεωρολογικές αναφορές και τις προγνώσεις καιρού.

Για να αλλάξετε το χάρτη: κάντε κλικ στα πράσινα κουμπιά με τον μαύρο σταυρό για να ζουμάρετε, στο πράσινο κουμπί με την παύλα για να αφαιρέσετε το ζουμ ή στα πράσινα βέλη για να αντιπαραβάλλετε χάρτες.


METAR-TAF: